Language: 


Des rapports , des résumés tant et plus, au choix de chacun....


Données Historiques de Météogheer
Journalier Rapport pour Janvier 7, 2018 Unitée:  Les deux    Impériale   Métrique
Suivant Jour »
Journalier Hebdomadaire Mensuel Annuel Sur mesure
  Max: Min: Moyenne:
Température: 42.1 °F /  5.6 °C 35.6 °F /  2.0 °C 38.1 °F /  3.4 °C
Point de rosée: 41 °F /  5.0 °C 32 °F /  0.0 °C 35.8 °F /  2.1 °C
Humidité: 95% 83% 89%
Vent: 22.6mph /  36.4km/h - 12.2mph /  19.6km/h
Rafales: 25.7mph /  41.4km/h - -
Vent- - NE
Pression: 30.2 in /  1023.9 hPa 30 in /  1015.1 hPa -
Pluie: 0 in /  0.0 mm    
Historical Graphs
 
 
Données tabulaires pour Janvier 7, 2018
Heure Température Point de rosée Pression Vent Vent Rafales Humidité Pluie Taux (Horaire) Conditions
00:02 42.1 °F /  5.6 °C 41 °F /  5.0 °C 30in /  1015.1hPa NNE 8.5mph /  13.7km/h 14.5mph /  23.3km/h 93% 0in /  0.0mm
00:07 42.1 °F /  5.6 °C 41 °F /  5.0 °C 30in /  1015.1hPa NE 10.3mph /  16.6km/h 15.7mph /  25.3km/h 93% 0in /  0.0mm
00:11 42.1 °F /  5.6 °C 41 °F /  5.0 °C 30in /  1015.1hPa ENE 7.6mph /  12.2km/h 15.7mph /  25.3km/h 92% 0in /  0.0mm
00:16 42.1 °F /  5.6 °C 41 °F /  5.0 °C 30in /  1015.1hPa NE 10.3mph /  16.6km/h 14.3mph /  23.0km/h 92% 0in /  0.0mm
00:23 41.9 °F /  5.5 °C 41 °F /  5.0 °C 30in /  1015.1hPa NNE 9.6mph /  15.4km/h 14.3mph /  23.0km/h 92% 0in /  0.0mm
00:28 41.9 °F /  5.5 °C 41 °F /  5.0 °C 30in /  1016.1hPa NNE 9.6mph /  15.4km/h 13mph /  20.9km/h 91% 0in /  0.0mm
00:32 41.7 °F /  5.4 °C 39.2 °F /  4.0 °C 30in /  1016.1hPa NE 9.6mph /  15.4km/h 15.4mph /  24.8km/h 91% 0in /  0.0mm
00:33 41.7 °F /  5.4 °C 39.2 °F /  4.0 °C 30in /  1016.1hPa NNE 10.5mph /  16.9km/h 15.4mph /  24.8km/h 91% 0in /  0.0mm
00:38 41.7 °F /  5.4 °C 39.2 °F /  4.0 °C 30in /  1016.1hPa NE 10.7mph /  17.2km/h 15.7mph /  25.3km/h 91% 0in /  0.0mm
00:40 41.7 °F /  5.4 °C 39.2 °F /  4.0 °C 30in /  1016.1hPa NE 13mph /  20.9km/h 15.7mph /  25.3km/h 91% 0in /  0.0mm
00:45 41.7 °F /  5.4 °C 39.2 °F /  4.0 °C 30in /  1016.1hPa NNE 10.1mph /  16.3km/h 15.4mph /  24.8km/h 91% 0in /  0.0mm
00:50 41.7 °F /  5.4 °C 39.2 °F /  4.0 °C 30in /  1016.1hPa NNE 9.4mph /  15.1km/h 15.7mph /  25.3km/h 91% 0in /  0.0mm
00:55 41.5 °F /  5.3 °C 39.2 °F /  4.0 °C 30in /  1016.1hPa North 10.1mph /  16.3km/h 17.2mph /  27.7km/h 91% 0in /  0.0mm
00:56 41.5 °F /  5.3 °C 39.2 °F /  4.0 °C 30in /  1016.1hPa NE 12.3mph /  19.8km/h 17.2mph /  27.7km/h 91% 0in /  0.0mm
00:58 41.5 °F /  5.3 °C 39.2 °F /  4.0 °C 30in /  1016.1hPa NE 17.7mph /  28.5km/h 17.7mph /  28.5km/h 91% 0in /  0.0mm
01:04 41.5 °F /  5.3 °C 39.2 °F /  4.0 °C 30in /  1016.1hPa NNE 14.5mph /  23.3km/h 17.7mph /  28.5km/h 91% 0in /  0.0mm
01:09 41.5 °F /  5.3 °C 39.2 °F /  4.0 °C 30in /  1016.1hPa NE 9.2mph /  14.8km/h 20.8mph /  33.5km/h 91% 0in /  0.0mm
01:14 41.5 °F /  5.3 °C 39.2 °F /  4.0 °C 30in /  1016.1hPa NE 10.5mph /  16.9km/h 20.8mph /  33.5km/h 92% 0in /  0.0mm
01:19 41.5 °F /  5.3 °C 39.2 °F /  4.0 °C 30in /  1016.1hPa NE 6.5mph /  10.5km/h 15.9mph /  25.6km/h 92% 0in /  0.0mm
01:22 41.4 °F /  5.2 °C 39.2 °F /  4.0 °C 30in /  1016.1hPa NE 10.7mph /  17.2km/h 16.3mph /  26.2km/h 92% 0in /  0.0mm
01:27 41.4 °F /  5.2 °C 39.2 °F /  4.0 °C 30in /  1016.1hPa NNE 9.8mph /  15.8km/h 16.3mph /  26.2km/h 92% 0in /  0.0mm
01:29 41.4 °F /  5.2 °C 39.2 °F /  4.0 °C 30in /  1016.1hPa NE 9.8mph /  15.8km/h 16.3mph /  26.2km/h 92% 0in /  0.0mm
01:34 41.4 °F /  5.2 °C 39.2 °F /  4.0 °C 30in /  1016.1hPa NNE 13.2mph /  21.2km/h 17.4mph /  28.0km/h 92% 0in /  0.0mm
01:37 41.2 °F /  5.1 °C 39.2 °F /  4.0 °C 30in /  1016.1hPa NE 15.2mph /  24.5km/h 17.4mph /  28.0km/h 92% 0in /  0.0mm
01:40 41.2 °F /  5.1 °C 39.2 °F /  4.0 °C 30in /  1016.1hPa NE 17.9mph /  28.8km/h 17.9mph /  28.8km/h 91% 0in /  0.0mm
01:45 41.2 °F /  5.1 °C 39.2 °F /  4.0 °C 30in /  1016.1hPa NNE 14.5mph /  23.3km/h 17.9mph /  28.8km/h 90% 0in /  0.0mm
01:47 41.2 °F /  5.1 °C 39.2 °F /  4.0 °C 30in /  1016.1hPa NNE 11.2mph /  18.0km/h 17.9mph /  28.8km/h 89% 0in /  0.0mm
01:53 41 °F /  5.0 °C 37.4 °F /  3.0 °C 30in /  1016.1hPa NE 15.2mph /  24.5km/h 16.6mph /  26.7km/h 88% 0in /  0.0mm
01:58 41 °F /  5.0 °C 37.4 °F /  3.0 °C 30in /  1016.8hPa NNE 12.3mph /  19.8km/h 16.8mph /  27.0km/h 88% 0in /  0.0mm
02:03 40.8 °F /  4.9 °C 37.4 °F /  3.0 °C 30in /  1016.8hPa NE 12.3mph /  19.8km/h 17.4mph /  28.0km/h 88% 0in /  0.0mm
02:08 40.8 °F /  4.9 °C 37.4 °F /  3.0 °C 30in /  1016.8hPa NE 9.8mph /  15.8km/h 17.4mph /  28.0km/h 88% 0in /  0.0mm
02:13 40.6 °F /  4.8 °C 37.4 °F /  3.0 °C 30in /  1016.8hPa NNE 10.7mph /  17.2km/h 17.7mph /  28.5km/h 87% 0in /  0.0mm
02:18 40.6 °F /  4.8 °C 37.4 °F /  3.0 °C 30in /  1016.8hPa NNE 9.6mph /  15.4km/h 17.7mph /  28.5km/h 86% 0in /  0.0mm
02:23 40.5 °F /  4.7 °C 37.4 °F /  3.0 °C 30in /  1016.8hPa NNE 11mph /  17.7km/h 17.4mph /  28.0km/h 87% 0in /  0.0mm
02:28 40.5 °F /  4.7 °C 37.4 °F /  3.0 °C 30in /  1016.8hPa NE 12.5mph /  20.1km/h 17.4mph /  28.0km/h 87% 0in /  0.0mm
02:30 40.5 °F /  4.7 °C 37.4 °F /  3.0 °C 30in /  1016.8hPa NNE 8.7mph /  14.0km/h 17.4mph /  28.0km/h 87% 0in /  0.0mm
02:35 40.3 °F /  4.6 °C 37.4 °F /  3.0 °C 30in /  1016.8hPa NE 10.5mph /  16.9km/h 17.7mph /  28.5km/h 87% 0in /  0.0mm
02:40 40.1 °F /  4.5 °C 37.4 °F /  3.0 °C 30in /  1016.8hPa NE 9.8mph /  15.8km/h 17.7mph /  28.5km/h 87% 0in /  0.0mm
02:51 39.7 °F /  4.3 °C 37.4 °F /  3.0 °C 30in /  1016.8hPa NNE 12.8mph /  20.6km/h 16.1mph /  25.9km/h 88% 0in /  0.0mm
02:57 39.7 °F /  4.3 °C 37.4 °F /  3.0 °C 30in /  1016.8hPa NE 7.8mph /  12.6km/h 17mph /  27.4km/h 88% 0in /  0.0mm
03:02 39.6 °F /  4.2 °C 37.4 °F /  3.0 °C 30in /  1016.8hPa NE 12.3mph /  19.8km/h 17mph /  27.4km/h 88% 0in /  0.0mm
03:07 39.6 °F /  4.2 °C 37.4 °F /  3.0 °C 30in /  1016.8hPa NE 14.5mph /  23.3km/h 15.7mph /  25.3km/h 89% 0in /  0.0mm
03:12 39.4 °F /  4.1 °C 37.4 °F /  3.0 °C 30in /  1016.8hPa NE 14.8mph /  23.8km/h 17.7mph /  28.5km/h 90% 0in /  0.0mm
03:17 39.4 °F /  4.1 °C 37.4 °F /  3.0 °C 30in /  1016.8hPa NE 9.8mph /  15.8km/h 17.9mph /  28.8km/h 90% 0in /  0.0mm
03:22 39.2 °F /  4.0 °C 37.4 °F /  3.0 °C 30in /  1016.8hPa NNE 8.7mph /  14.0km/h 17.9mph /  28.8km/h 91% 0in /  0.0mm
03:23 39.2 °F /  4.0 °C 37.4 °F /  3.0 °C 30in /  1016.8hPa NE 14.5mph /  23.3km/h 17.9mph /  28.8km/h 91% 0in /  0.0mm
03:28 39 °F /  3.9 °C 37.4 °F /  3.0 °C 30in /  1016.8hPa NNE 12.3mph /  19.8km/h 15.2mph /  24.5km/h 92% 0in /  0.0mm
03:33 39 °F /  3.9 °C 37.4 °F /  3.0 °C 30in /  1016.8hPa NNW 12.3mph /  19.8km/h 17.4mph /  28.0km/h 93% 0in /  0.0mm
03:39 38.8 °F /  3.8 °C 37.4 °F /  3.0 °C 30in /  1016.8hPa NNE 8.5mph /  13.7km/h 17.4mph /  28.0km/h 93% 0in /  0.0mm
03:43 38.7 °F /  3.7 °C 37.4 °F /  3.0 °C 30in /  1016.8hPa NE 7.6mph /  12.2km/h 13.4mph /  21.6km/h 94% 0in /  0.0mm
03:48 38.7 °F /  3.7 °C 37.4 °F /  3.0 °C 30in /  1016.8hPa NNE 8.5mph /  13.7km/h 13.2mph /  21.2km/h 94% 0in /  0.0mm
03:50 38.7 °F /  3.7 °C 37.4 °F /  3.0 °C 30in /  1016.8hPa NNE 6.5mph /  10.5km/h 13.4mph /  21.6km/h 94% 0in /  0.0mm
03:55 38.7 °F /  3.7 °C 37.4 °F /  3.0 °C 30in /  1016.8hPa NNE 8.1mph /  13.0km/h 13.4mph /  21.6km/h 94% 0in /  0.0mm
04:01 38.7 °F /  3.7 °C 37.4 °F /  3.0 °C 30in /  1016.8hPa NE 9.8mph /  15.8km/h 13.4mph /  21.6km/h 95% 0in /  0.0mm
04:03 38.7 °F /  3.7 °C 37.4 °F /  3.0 °C 30in /  1016.8hPa NE 13.2mph /  21.2km/h 13.2mph /  21.2km/h 95% 0in /  0.0mm
04:08 38.7 °F /  3.7 °C 37.4 °F /  3.0 °C 30in /  1016.8hPa NNE 10.1mph /  16.3km/h 14.5mph /  23.3km/h 94% 0in /  0.0mm
04:13 38.5 °F /  3.6 °C 37.4 °F /  3.0 °C 30in /  1016.8hPa NE 9.8mph /  15.8km/h 14.5mph /  23.3km/h 94% 0in /  0.0mm
04:18 38.5 °F /  3.6 °C 37.4 °F /  3.0 °C 30in /  1016.8hPa NE 8.5mph /  13.7km/h 13.2mph /  21.2km/h 94% 0in /  0.0mm
04:24 38.5 °F /  3.6 °C 37.4 °F /  3.0 °C 30in /  1016.8hPa NNE 12.5mph /  20.1km/h 13.2mph /  21.2km/h 94% 0in /  0.0mm
04:29 38.5 °F /  3.6 °C 37.4 °F /  3.0 °C 30.1in /  1018.2hPa NNE 12.8mph /  20.6km/h 12.8mph /  20.6km/h 94% 0in /  0.0mm
04:35 38.7 °F /  3.7 °C 37.4 °F /  3.0 °C 30.1in /  1018.2hPa NE 12.5mph /  20.1km/h 14.3mph /  23.0km/h 93% 0in /  0.0mm
04:44 38.7 °F /  3.7 °C 37.4 °F /  3.0 °C 30in /  1016.8hPa NE 11mph /  17.7km/h 14.5mph /  23.3km/h 93% 0in /  0.0mm
04:49 38.7 °F /  3.7 °C 37.4 °F /  3.0 °C 30in /  1016.8hPa NE 13.6mph /  21.9km/h 16.1mph /  25.9km/h 93% 0in /  0.0mm
04:54 38.7 °F /  3.7 °C 37.4 °F /  3.0 °C 30in /  1016.8hPa NNE 13.6mph /  21.9km/h 16.1mph /  25.9km/h 92% 0in /  0.0mm
04:59 38.7 °F /  3.7 °C 37.4 °F /  3.0 °C 30in /  1016.8hPa NE 11.2mph /  18.0km/h 19.2mph /  30.9km/h 91% 0in /  0.0mm
05:04 38.8 °F /  3.8 °C 37.4 °F /  3.0 °C 30in /  1016.8hPa NE 10.3mph /  16.6km/h 19.2mph /  30.9km/h 91% 0in /  0.0mm
05:06 38.7 °F /  3.7 °C 37.4 °F /  3.0 °C 30in /  1016.8hPa NE 14.1mph /  22.7km/h 19.2mph /  30.9km/h 91% 0in /  0.0mm
05:11 38.7 °F /  3.7 °C 37.4 °F /  3.0 °C 30.1in /  1018.2hPa ENE 13.4mph /  21.6km/h 19.9mph /  32.0km/h 91% 0in /  0.0mm
05:12 38.7 °F /  3.7 °C 37.4 °F /  3.0 °C 30.1in /  1018.2hPa ENE 10.5mph /  16.9km/h 19.9mph /  32.0km/h 91% 0in /  0.0mm
05:17 38.7 °F /  3.7 °C 37.4 °F /  3.0 °C 30.1in /  1018.2hPa NE 10.3mph /  16.6km/h 18.6mph /  29.9km/h 91% 0in /  0.0mm
05:22 38.7 °F /  3.7 °C 37.4 °F /  3.0 °C 30.1in /  1018.2hPa NNE 10.5mph /  16.9km/h 18.6mph /  29.9km/h 91% 0in /  0.0mm
05:27 38.5 °F /  3.6 °C 37.4 °F /  3.0 °C 30.1in /  1018.2hPa NNE 15.4mph /  24.8km/h 17.4mph /  28.0km/h 92% 0in /  0.0mm
05:32 38.3 °F /  3.5 °C 37.4 °F /  3.0 °C 30.1in /  1018.2hPa NNE 9.8mph /  15.8km/h 19.5mph /  31.4km/h 92% 0in /  0.0mm
05:33 38.3 °F /  3.5 °C 37.4 °F /  3.0 °C 30.1in /  1018.2hPa NE 10.7mph /  17.2km/h 19.5mph /  31.4km/h 92% 0in /  0.0mm
05:34 38.1 °F /  3.4 °C 35.6 °F /  2.0 °C 30.1in /  1018.2hPa NE 11mph /  17.7km/h 19.5mph /  31.4km/h 92% 0in /  0.0mm
05:39 38.1 °F /  3.4 °C 37.4 °F /  3.0 °C 30.1in /  1018.2hPa NNE 9.8mph /  15.8km/h 19.5mph /  31.4km/h 93% 0in /  0.0mm
05:45 37.9 °F /  3.3 °C 37.4 °F /  3.0 °C 30.1in /  1018.2hPa NE 6.3mph /  10.1km/h 15.9mph /  25.6km/h 93% 0in /  0.0mm
05:50 37.9 °F /  3.3 °C 37.4 °F /  3.0 °C 30.1in /  1018.2hPa NE 10.5mph /  16.9km/h 18.1mph /  29.1km/h 93% 0in /  0.0mm
05:52 37.9 °F /  3.3 °C 37.4 °F /  3.0 °C 30.1in /  1018.2hPa NE 15.7mph /  25.3km/h 18.1mph /  29.1km/h 94% 0in /  0.0mm
05:57 37.9 °F /  3.3 °C 37.4 °F /  3.0 °C 30.1in /  1018.2hPa NE 11mph /  17.7km/h 22.1mph /  35.6km/h 94% 0in /  0.0mm
06:02 37.9 °F /  3.3 °C 37.4 °F /  3.0 °C 30.1in /  1018.2hPa NE 15.7mph /  25.3km/h 22.1mph /  35.6km/h 94% 0in /  0.0mm
06:07 38.1 °F /  3.4 °C 37.4 °F /  3.0 °C 30.1in /  1018.2hPa NE 22.6mph /  36.4km/h 22.6mph /  36.4km/h 94% 0in /  0.0mm
06:13 38.1 °F /  3.4 °C 37.4 °F /  3.0 °C 30.1in /  1018.2hPa NE 12.3mph /  19.8km/h 22.6mph /  36.4km/h 94% 0in /  0.0mm
06:18 38.1 °F /  3.4 °C 37.4 °F /  3.0 °C 30.1in /  1018.2hPa NNE 18.6mph /  29.9km/h 19.9mph /  32.0km/h 94% 0in /  0.0mm
06:23 37.9 °F /  3.3 °C 37.4 °F /  3.0 °C 30.1in /  1018.2hPa NE 12.8mph /  20.6km/h 22.1mph /  35.6km/h 94% 0in /  0.0mm
06:29 37.9 °F /  3.3 °C 37.4 °F /  3.0 °C 30.1in /  1018.2hPa NE 18.6mph /  29.9km/h 25.7mph /  41.4km/h 94% 0in /  0.0mm
06:34 37.9 °F /  3.3 °C 37.4 °F /  3.0 °C 30.1in /  1018.2hPa NE 16.8mph /  27.0km/h 25.7mph /  41.4km/h 94% 0in /  0.0mm
06:39 38.1 °F /  3.4 °C 37.4 °F /  3.0 °C 30.1in /  1018.2hPa NE 12.5mph /  20.1km/h 23.7mph /  38.1km/h 94% 0in /  0.0mm
06:44 37.9 °F /  3.3 °C 37.4 °F /  3.0 °C 30.1in /  1018.2hPa NE 19.2mph /  30.9km/h 23mph /  37.0km/h 94% 0in /  0.0mm
06:50 37.9 °F /  3.3 °C 37.4 °F /  3.0 °C 30.1in /  1018.2hPa NNE 15.2mph /  24.5km/h 22.4mph /  36.0km/h 94% 0in /  0.0mm
06:51 37.9 °F /  3.3 °C 37.4 °F /  3.0 °C 30.1in /  1018.2hPa NE 13.9mph /  22.4km/h 22.4mph /  36.0km/h 94% 0in /  0.0mm
06:56 38.1 °F /  3.4 °C 37.4 °F /  3.0 °C 30.1in /  1018.8hPa NE 10.3mph /  16.6km/h 19.9mph /  32.0km/h 94% 0in /  0.0mm
07:02 38.1 °F /  3.4 °C 37.4 °F /  3.0 °C 30.1in /  1018.8hPa NE 19.7mph /  31.7km/h 19.7mph /  31.7km/h 94% 0in /  0.0mm
07:07 38.1 °F /  3.4 °C 37.4 °F /  3.0 °C 30.1in /  1018.8hPa NE 15.4mph /  24.8km/h 19.7mph /  31.7km/h 94% 0in /  0.0mm
07:12 38.1 °F /  3.4 °C 37.4 °F /  3.0 °C 30.1in /  1018.8hPa NE 17.2mph /  27.7km/h 19.9mph /  32.0km/h 95% 0in /  0.0mm
07:16 38.1 °F /  3.4 °C 37.4 °F /  3.0 °C 30.1in /  1018.8hPa ENE 10.3mph /  16.6km/h 19.9mph /  32.0km/h 95% 0in /  0.0mm
07:21 38.1 °F /  3.4 °C 37.4 °F /  3.0 °C 30.1in /  1018.8hPa NE 13.4mph /  21.6km/h 19.7mph /  31.7km/h 95% 0in /  0.0mm
07:32 38.3 °F /  3.5 °C 37.4 °F /  3.0 °C 30.1in /  1018.2hPa NE 12.8mph /  20.6km/h 23.3mph /  37.5km/h 94% 0in /  0.0mm
07:37 38.3 °F /  3.5 °C 37.4 °F /  3.0 °C 30.1in /  1018.2hPa NE 14.8mph /  23.8km/h 23.3mph /  37.5km/h 94% 0in /  0.0mm
07:42 38.3 °F /  3.5 °C 37.4 °F /  3.0 °C 30.1in /  1018.8hPa NE 9.8mph /  15.8km/h 19.9mph /  32.0km/h 95% 0in /  0.0mm
07:44 38.3 °F /  3.5 °C 37.4 °F /  3.0 °C 30.1in /  1018.8hPa ENE 13.4mph /  21.6km/h 19.9mph /  32.0km/h 95% 0in /  0.0mm
07:49 38.5 °F /  3.6 °C 37.4 °F /  3.0 °C 30.1in /  1018.8hPa NE 12.3mph /  19.8km/h 19.9mph /  32.0km/h 94% 0in /  0.0mm
07:54 38.5 °F /  3.6 °C 37.4 °F /  3.0 °C 30.1in /  1018.8hPa NE 15.2mph /  24.5km/h 20.8mph /  33.5km/h 94% 0in /  0.0mm
07:59 38.5 °F /  3.6 °C 37.4 °F /  3.0 °C 30.1in /  1019.9hPa NE 13mph /  20.9km/h 20.8mph /  33.5km/h 94% 0in /  0.0mm
08:05 38.5 °F /  3.6 °C 37.4 °F /  3.0 °C 30.1in /  1019.9hPa ENE 12.5mph /  20.1km/h 19.5mph /  31.4km/h 94% 0in /  0.0mm
08:10 38.5 °F /  3.6 °C 37.4 °F /  3.0 °C 30.1in /  1019.9hPa North 12.8mph /  20.6km/h 23.7mph /  38.1km/h 94% 0in /  0.0mm
08:11 38.5 °F /  3.6 °C 37.4 °F /  3.0 °C 30.1in /  1019.9hPa NNE 17.4mph /  28.0km/h 23.7mph /  38.1km/h 94% 0in /  0.0mm
08:16 38.5 °F /  3.6 °C 37.4 °F /  3.0 °C 30.1in /  1019.9hPa NE 12.5mph /  20.1km/h 23.7mph /  38.1km/h 94% 0in /  0.0mm
08:21 38.5 °F /  3.6 °C 37.4 °F /  3.0 °C 30.1in /  1019.9hPa NE 12.5mph /  20.1km/h 19.7mph /  31.7km/h 94% 0in /  0.0mm
08:26 38.5 °F /  3.6 °C 37.4 °F /  3.0 °C 30.1in /  1019.9hPa NNE 10.7mph /  17.2km/h 17.4mph /  28.0km/h 94% 0in /  0.0mm
08:31 38.5 °F /  3.6 °C 37.4 °F /  3.0 °C 30.2in /  1020.9hPa ENE 12.5mph /  20.1km/h 17.4mph /  28.0km/h 94% 0in /  0.0mm
08:36 38.5 °F /  3.6 °C 37.4 °F /  3.0 °C 30.2in /  1020.9hPa NE 17.9mph /  28.8km/h 22.1mph /  35.6km/h 94% 0in /  0.0mm
08:41 38.5 °F /  3.6 °C 37.4 °F /  3.0 °C 30.2in /  1020.9hPa NE 15.2mph /  24.5km/h 22.6mph /  36.4km/h 93% 0in /  0.0mm
08:46 38.5 °F /  3.6 °C 37.4 °F /  3.0 °C 30.2in /  1020.9hPa NE 10.1mph /  16.3km/h 22.6mph /  36.4km/h 93% 0in /  0.0mm
08:50 38.5 °F /  3.6 °C 37.4 °F /  3.0 °C 30.2in /  1020.9hPa ENE 17.7mph /  28.5km/h 22.6mph /  36.4km/h 93% 0in /  0.0mm
08:55 38.5 °F /  3.6 °C 37.4 °F /  3.0 °C 30.2in /  1020.9hPa ENE 13mph /  20.9km/h 20.4mph /  32.8km/h 93% 0in /  0.0mm
09:00 38.5 °F /  3.6 °C 37.4 °F /  3.0 °C 30.2in /  1020.9hPa ENE 12.5mph /  20.1km/h 20.4mph /  32.8km/h 93% 0in /  0.0mm
09:05 38.5 °F /  3.6 °C 37.4 °F /  3.0 °C 30.2in /  1020.9hPa NE 10.3mph /  16.6km/h 17.9mph /  28.8km/h 93% 0in /  0.0mm
09:11 38.5 °F /  3.6 °C 37.4 °F /  3.0 °C 30.2in /  1020.9hPa NE 11.4mph /  18.3km/h 17.2mph /  27.7km/h 93% 0in /  0.0mm
09:16 38.5 °F /  3.6 °C 37.4 °F /  3.0 °C 30.2in /  1020.9hPa East 10.1mph /  16.3km/h 14.8mph /  23.8km/h 93% 0in /  0.0mm
09:21 38.5 °F /  3.6 °C 37.4 °F /  3.0 °C 30.2in /  1020.9hPa NNE 15.9mph /  25.6km/h 15.9mph /  25.6km/h 93% 0in /  0.0mm
09:24 38.5 °F /  3.6 °C 37.4 °F /  3.0 °C 30.2in /  1020.9hPa NE 13mph /  20.9km/h 17.2mph /  27.7km/h 93% 0in /  0.0mm
09:29 38.5 °F /  3.6 °C 37.4 °F /  3.0 °C 30.2in /  1020.9hPa NE 11mph /  17.7km/h 17.7mph /  28.5km/h 93% 0in /  0.0mm
09:32 38.3 °F /  3.5 °C 37.4 °F /  3.0 °C 30.2in /  1020.9hPa NE 17.7mph /  28.5km/h 17.7mph /  28.5km/h 92% 0in /  0.0mm
09:34 38.3 °F /  3.5 °C 37.4 °F /  3.0 °C 30.2in /  1020.9hPa NE 12.8mph /  20.6km/h 19.5mph /  31.4km/h 92% 0in /  0.0mm
09:39 38.3 °F /  3.5 °C 37.4 °F /  3.0 °C 30.2in /  1020.9hPa NE 13.2mph /  21.2km/h 22.8mph /  36.7km/h 91% 0in /  0.0mm
09:44 38.3 °F /  3.5 °C 37.4 °F /  3.0 °C 30.2in /  1021.9hPa NE 14.1mph /  22.7km/h 22.8mph /  36.7km/h 91% 0in /  0.0mm
09:49 38.3 °F /  3.5 °C 37.4 °F /  3.0 °C 30.2in /  1021.9hPa NE 14.1mph /  22.7km/h 18.6mph /  29.9km/h 91% 0in /  0.0mm
10:00 38.3 °F /  3.5 °C 35.6 °F /  2.0 °C 30.2in /  1021.9hPa ENE 12.8mph /  20.6km/h 23.3mph /  37.5km/h 90% 0in /  0.0mm
10:02 38.3 °F /  3.5 °C 37.4 °F /  3.0 °C 30.2in /  1021.9hPa ENE 11.2mph /  18.0km/h 23.3mph /  37.5km/h 91% 0in /  0.0mm
10:07 38.3 °F /  3.5 °C 37.4 °F /  3.0 °C 30.2in /  1021.9hPa NE 13.9mph /  22.4km/h 23mph /  37.0km/h 91% 0in /  0.0mm
10:12 38.5 °F /  3.6 °C 37.4 °F /  3.0 °C 30.2in /  1021.9hPa NE 10.5mph /  16.9km/h 19mph /  30.6km/h 92% 0in /  0.0mm
10:17 38.5 °F /  3.6 °C 37.4 °F /  3.0 °C 30.2in /  1021.9hPa NE 20.4mph /  32.8km/h 20.4mph /  32.8km/h 91% 0in /  0.0mm
10:22 38.5 °F /  3.6 °C 37.4 °F /  3.0 °C 30.2in /  1021.9hPa ENE 17.4mph /  28.0km/h 20.4mph /  32.8km/h 91% 0in /  0.0mm
10:24 38.5 °F /  3.6 °C 35.6 °F /  2.0 °C 30.2in /  1021.9hPa NE 14.1mph /  22.7km/h 20.4mph /  32.8km/h 90% 0in /  0.0mm
10:29 38.5 °F /  3.6 °C 37.4 °F /  3.0 °C 30.2in /  1021.9hPa NNE 14.8mph /  23.8km/h 19.5mph /  31.4km/h 91% 0in /  0.0mm
10:32 38.5 °F /  3.6 °C 35.6 °F /  2.0 °C 30.2in /  1021.9hPa NE 13mph /  20.9km/h 19.7mph /  31.7km/h 90% 0in /  0.0mm
10:37 38.5 °F /  3.6 °C 35.6 °F /  2.0 °C 30.2in /  1021.9hPa NE 11mph /  17.7km/h 22.4mph /  36.0km/h 89% 0in /  0.0mm
10:42 38.5 °F /  3.6 °C 35.6 °F /  2.0 °C 30.2in /  1022.9hPa NE 13.2mph /  21.2km/h 22.4mph /  36.0km/h 90% 0in /  0.0mm
10:45 38.5 °F /  3.6 °C 35.6 °F /  2.0 °C 30.2in /  1022.9hPa NE 15.4mph /  24.8km/h 22.4mph /  36.0km/h 89% 0in /  0.0mm
10:50 38.5 °F /  3.6 °C 35.6 °F /  2.0 °C 30.2in /  1022.9hPa ENE 17.2mph /  27.7km/h 21.5mph /  34.6km/h 89% 0in /  0.0mm
10:55 38.5 °F /  3.6 °C 35.6 °F /  2.0 °C 30.2in /  1022.9hPa NE 12.8mph /  20.6km/h 19.7mph /  31.7km/h 89% 0in /  0.0mm
11:00 38.5 °F /  3.6 °C 35.6 °F /  2.0 °C 30.2in /  1022.9hPa NE 17mph /  27.4km/h 18.6mph /  29.9km/h 90% 0in /  0.0mm
11:10 38.5 °F /  3.6 °C 35.6 °F /  2.0 °C 30.2in /  1022.9hPa ENE 12.8mph /  20.6km/h 22.4mph /  36.0km/h 90% 0in /  0.0mm
11:15 38.5 °F /  3.6 °C 35.6 °F /  2.0 °C 30.2in /  1022.9hPa ENE 13.2mph /  21.2km/h 22.4mph /  36.0km/h 90% 0in /  0.0mm
11:20 38.5 °F /  3.6 °C 35.6 °F /  2.0 °C 30.2in /  1022.9hPa NE 10.3mph /  16.6km/h 21.5mph /  34.6km/h 89% 0in /  0.0mm
11:22 38.5 °F /  3.6 °C 35.6 °F /  2.0 °C 30.2in /  1022.9hPa NE 12.8mph /  20.6km/h 19.9mph /  32.0km/h 89% 0in /  0.0mm
11:26 38.5 °F /  3.6 °C 35.6 °F /  2.0 °C 30.2in /  1022.9hPa NE 10.7mph /  17.2km/h 20.4mph /  32.8km/h 89% 0in /  0.0mm
11:27 38.5 °F /  3.6 °C 35.6 °F /  2.0 °C 30.2in /  1022.9hPa NE 13.2mph /  21.2km/h 20.4mph /  32.8km/h 89% 0in /  0.0mm
11:32 38.5 °F /  3.6 °C 35.6 °F /  2.0 °C 30.2in /  1022.9hPa NE 12.5mph /  20.1km/h 21.3mph /  34.3km/h 89% 0in /  0.0mm
11:34 38.5 °F /  3.6 °C 35.6 °F /  2.0 °C 30.2in /  1022.9hPa ENE 11.2mph /  18.0km/h 21.3mph /  34.3km/h 89% 0in /  0.0mm
11:39 38.5 °F /  3.6 °C 35.6 °F /  2.0 °C 30.2in /  1022.9hPa ENE 13mph /  20.9km/h 18.6mph /  29.9km/h 89% 0in /  0.0mm
11:41 38.7 °F /  3.7 °C 35.6 °F /  2.0 °C 30.2in /  1022.9hPa NE 19.7mph /  31.7km/h 19.7mph /  31.7km/h 89% 0in /  0.0mm
11:45 38.7 °F /  3.7 °C 35.6 °F /  2.0 °C 30.2in /  1022.9hPa NE 17.4mph /  28.0km/h 19.7mph /  31.7km/h 89% 0in /  0.0mm
11:50 38.7 °F /  3.7 °C 35.6 °F /  2.0 °C 30.2in /  1022.9hPa NE 13.9mph /  22.4km/h 19.7mph /  31.7km/h 88% 0in /  0.0mm
11:51 38.7 °F /  3.7 °C 35.6 °F /  2.0 °C 30.2in /  1022.9hPa NE 14.8mph /  23.8km/h 19.7mph /  31.7km/h 88% 0in /  0.0mm
11:55 38.7 °F /  3.7 °C 35.6 °F /  2.0 °C 30.2in /  1022.9hPa NE 14.8mph /  23.8km/h 20.6mph /  33.1km/h 88% 0in /  0.0mm
12:00 38.7 °F /  3.7 °C 35.6 °F /  2.0 °C 30.2in /  1022.9hPa ENE 17.4mph /  28.0km/h 22.4mph /  36.0km/h 87% 0in /  0.0mm
12:02 38.7 °F /  3.7 °C 35.6 °F /  2.0 °C 30.2in /  1022.9hPa NNE 16.6mph /  26.7km/h 22.4mph /  36.0km/h 87% 0in /  0.0mm
12:07 38.7 °F /  3.7 °C 35.6 °F /  2.0 °C 30.2in /  1022.9hPa NE 17.2mph /  27.7km/h 22.4mph /  36.0km/h 88% 0in /  0.0mm
12:12 38.7 °F /  3.7 °C 35.6 °F /  2.0 °C 30.2in /  1021.9hPa NE 12.5mph /  20.1km/h 19.7mph /  31.7km/h 87% 0in /  0.0mm
12:13 38.7 °F /  3.7 °C 35.6 °F /  2.0 °C 30.2in /  1021.9hPa NE 15.2mph /  24.5km/h 19.7mph /  31.7km/h 87% 0in /  0.0mm
12:19 38.7 °F /  3.7 °C 35.6 °F /  2.0 °C 30.2in /  1021.9hPa NNE 10.7mph /  17.2km/h 17.2mph /  27.7km/h 87% 0in /  0.0mm
12:20 38.7 °F /  3.7 °C 35.6 °F /  2.0 °C 30.2in /  1021.9hPa NE 15.9mph /  25.6km/h 17.2mph /  27.7km/h 87% 0in /  0.0mm
12:23 38.7 °F /  3.7 °C 35.6 °F /  2.0 °C 30.2in /  1021.9hPa East 11mph /  17.7km/h 19.9mph /  32.0km/h 87% 0in /  0.0mm
12:25 38.7 °F /  3.7 °C 35.6 °F /  2.0 °C 30.2in /  1021.9hPa NE 19.9mph /  32.0km/h 19.9mph /  32.0km/h 87% 0in /  0.0mm
12:30 38.7 °F /  3.7 °C 35.6 °F /  2.0 °C 30.2in /  1021.9hPa East 17.2mph /  27.7km/h 21.3mph /  34.3km/h 87% 0in /  0.0mm
12:37 38.7 °F /  3.7 °C 35.6 °F /  2.0 °C 30.2in /  1021.9hPa NE 9.4mph /  15.1km/h 21.3mph /  34.3km/h 87% 0in /  0.0mm
12:38 38.7 °F /  3.7 °C 35.6 °F /  2.0 °C 30.2in /  1021.9hPa NE 15.9mph /  25.6km/h 18.8mph /  30.2km/h 88% 0in /  0.0mm
12:44 38.7 °F /  3.7 °C 35.6 °F /  2.0 °C 30.2in /  1021.9hPa NNE 7.8mph /  12.6km/h 19.2mph /  30.9km/h 87% 0in /  0.0mm
12:48 38.5 °F /  3.6 °C 35.6 °F /  2.0 °C 30.2in /  1021.9hPa East 14.8mph /  23.8km/h 19.2mph /  30.9km/h 87% 0in /  0.0mm
12:53 38.5 °F /  3.6 °C 35.6 °F /  2.0 °C 30.2in /  1021.9hPa NE 17.9mph /  28.8km/h 17.9mph /  28.8km/h 87% 0in /  0.0mm
13:00 38.5 °F /  3.6 °C 35.6 °F /  2.0 °C 30.2in /  1021.9hPa NE 14.1mph /  22.7km/h 17.9mph /  28.8km/h 87% 0in /  0.0mm
13:01 38.5 °F /  3.6 °C 35.6 °F /  2.0 °C 30.2in /  1021.9hPa ENE 12.8mph /  20.6km/h 17.9mph /  28.8km/h 87% 0in /  0.0mm
13:06 38.1 °F /  3.4 °C 33.8 °F /  1.0 °C 30.2in /  1021.9hPa NE 14.1mph /  22.7km/h 19.9mph /  32.0km/h 86% 0in /  0.0mm
13:11 38.1 °F /  3.4 °C 33.8 °F /  1.0 °C 30.2in /  1021.9hPa ENE 14.1mph /  22.7km/h 19.9mph /  32.0km/h 86% 0in /  0.0mm
13:12 38.1 °F /  3.4 °C 35.6 °F /  2.0 °C 30.2in /  1021.9hPa NE 8.7mph /  14.0km/h 19.9mph /  32.0km/h 87% 0in /  0.0mm
13:17 38.1 °F /  3.4 °C 35.6 °F /  2.0 °C 30.2in /  1021.9hPa ENE 10.7mph /  17.2km/h 19.7mph /  31.7km/h 87% 0in /  0.0mm
13:21 38.1 °F /  3.4 °C 35.6 °F /  2.0 °C 30.2in /  1021.9hPa NE 16.8mph /  27.0km/h 18.8mph /  30.2km/h 87% 0in /  0.0mm
13:26 38.1 °F /  3.4 °C 35.6 °F /  2.0 °C 30.2in /  1021.9hPa NE 17mph /  27.4km/h 19.9mph /  32.0km/h 87% 0in /  0.0mm
13:31 38.1 °F /  3.4 °C 35.6 °F /  2.0 °C 30.2in /  1021.9hPa NE 12.3mph /  19.8km/h 20.4mph /  32.8km/h 87% 0in /  0.0mm
13:41 38.1 °F /  3.4 °C 35.6 °F /  2.0 °C 30.2in /  1021.9hPa NNE 12.8mph /  20.6km/h 19.5mph /  31.4km/h 87% 0in /  0.0mm
13:46 38.1 °F /  3.4 °C 35.6 °F /  2.0 °C 30.2in /  1021.9hPa NE 13.6mph /  21.9km/h 17.4mph /  28.0km/h 87% 0in /  0.0mm
13:50 38.1 °F /  3.4 °C 35.6 °F /  2.0 °C 30.2in /  1021.9hPa NE 14.5mph /  23.3km/h 17.4mph /  28.0km/h 87% 0in /  0.0mm
13:56 38.1 °F /  3.4 °C 35.6 °F /  2.0 °C 30.2in /  1020.9hPa NE 17.4mph /  28.0km/h 17.4mph /  28.0km/h 87% 0in /  0.0mm
13:58 38.1 °F /  3.4 °C 35.6 °F /  2.0 °C 30.2in /  1020.9hPa NE 12.3mph /  19.8km/h 17.4mph /  28.0km/h 87% 0in /  0.0mm
14:03 38.1 °F /  3.4 °C 35.6 °F /  2.0 °C 30.2in /  1020.9hPa ENE 13.6mph /  21.9km/h 17.4mph /  28.0km/h 87% 0in /  0.0mm
14:04 37.9 °F /  3.3 °C 35.6 °F /  2.0 °C 30.2in /  1020.9hPa NE 15.9mph /  25.6km/h 22.4mph /  36.0km/h 87% 0in /  0.0mm
14:09 37.9 °F /  3.3 °C 35.6 °F /  2.0 °C 30.2in /  1020.9hPa NE 11.4mph /  18.3km/h 22.4mph /  36.0km/h 87% 0in /  0.0mm
14:12 37.9 °F /  3.3 °C 35.6 °F /  2.0 °C 30.2in /  1020.9hPa NE 13mph /  20.9km/h 22.4mph /  36.0km/h 87% 0in /  0.0mm
14:17 37.8 °F /  3.2 °C 35.6 °F /  2.0 °C 30.2in /  1020.9hPa NE 15.9mph /  25.6km/h 23.5mph /  37.8km/h 87% 0in /  0.0mm
14:18 37.8 °F /  3.2 °C 35.6 °F /  2.0 °C 30.2in /  1020.9hPa NE 17.4mph /  28.0km/h 23.5mph /  37.8km/h 87% 0in /  0.0mm
14:23 37.8 °F /  3.2 °C 35.6 °F /  2.0 °C 30.2in /  1020.9hPa NE 19.7mph /  31.7km/h 23.9mph /  38.5km/h 87% 0in /  0.0mm
14:27 37.8 °F /  3.2 °C 35.6 °F /  2.0 °C 30.2in /  1020.9hPa NE 10.3mph /  16.6km/h 23.9mph /  38.5km/h 87% 0in /  0.0mm
14:32 37.8 °F /  3.2 °C 35.6 °F /  2.0 °C 30.2in /  1020.9hPa ENE 15.2mph /  24.5km/h 22.8mph /  36.7km/h 87% 0in /  0.0mm
14:33 37.8 °F /  3.2 °C 35.6 °F /  2.0 °C 30.2in /  1020.9hPa NE 20.8mph /  33.5km/h 22.8mph /  36.7km/h 87% 0in /  0.0mm
14:38 37.6 °F /  3.1 °C 33.8 °F /  1.0 °C 30.2in /  1020.9hPa ENE 13.9mph /  22.4km/h 23.9mph /  38.5km/h 86% 0in /  0.0mm
14:43 37.6 °F /  3.1 °C 33.8 °F /  1.0 °C 30.2in /  1020.9hPa NE 17.7mph /  28.5km/h 23.3mph /  37.5km/h 86% 0in /  0.0mm
14:48 37.8 °F /  3.2 °C 33.8 °F /  1.0 °C 30.2in /  1020.9hPa ENE 12.3mph /  19.8km/h 23.3mph /  37.5km/h 86% 0in /  0.0mm
14:53 37.8 °F /  3.2 °C 33.8 °F /  1.0 °C 30.2in /  1020.9hPa ENE 15.2mph /  24.5km/h 17.9mph /  28.8km/h 86% 0in /  0.0mm
14:58 37.9 °F /  3.3 °C 33.8 °F /  1.0 °C 30.2in /  1020.9hPa ENE 11mph /  17.7km/h 19.9mph /  32.0km/h 86% 0in /  0.0mm
15:02 37.9 °F /  3.3 °C 33.8 °F /  1.0 °C 30.2in /  1020.9hPa NNE 15.4mph /  24.8km/h 19.9mph /  32.0km/h 86% 0in /  0.0mm
15:07 37.8 °F /  3.2 °C 33.8 °F /  1.0 °C 30.2in /  1020.9hPa NE 10.1mph /  16.3km/h 17.2mph /  27.7km/h 86% 0in /  0.0mm
15:12 37.8 °F /  3.2 °C 35.6 °F /  2.0 °C 30.2in /  1021.9hPa NE 17.4mph /  28.0km/h 17.9mph /  28.8km/h 87% 0in /  0.0mm
15:14 37.8 °F /  3.2 °C 33.8 °F /  1.0 °C 30.2in /  1021.9hPa NNE 10.3mph /  16.6km/h 17.9mph /  28.8km/h 86% 0in /  0.0mm
15:19 37.8 °F /  3.2 °C 35.6 °F /  2.0 °C 30.2in /  1021.9hPa NE 6.5mph /  10.5km/h 17.9mph /  28.8km/h 87% 0in /  0.0mm
15:24 37.8 °F /  3.2 °C 35.6 °F /  2.0 °C 30.2in /  1021.9hPa ENE 12.8mph /  20.6km/h 14.8mph /  23.8km/h 88% 0in /  0.0mm
15:29 37.8 °F /  3.2 °C 35.6 °F /  2.0 °C 30.2in /  1021.9hPa ENE 14.5mph /  23.3km/h 14.8mph /  23.8km/h 87% 0in /  0.0mm
15:35 37.8 °F /  3.2 °C 35.6 °F /  2.0 °C 30.2in /  1021.9hPa NE 9.2mph /  14.8km/h 16.6mph /  26.7km/h 87% 0in /  0.0mm
15:40 37.9 °F /  3.3 °C 35.6 °F /  2.0 °C 30.2in /  1021.9hPa NE 10.1mph /  16.3km/h 16.6mph /  26.7km/h 88% 0in /  0.0mm
15:45 37.9 °F /  3.3 °C 35.6 °F /  2.0 °C 30.2in /  1021.9hPa NE 8.5mph /  13.7km/h 11mph /  17.7km/h 88% 0in /  0.0mm
15:50 37.9 °F /  3.3 °C 35.6 °F /  2.0 °C 30.2in /  1021.9hPa NNE 8.5mph /  13.7km/h 12.1mph /  19.5km/h 88% 0in /  0.0mm
15:53 37.9 °F /  3.3 °C 35.6 °F /  2.0 °C 30.2in /  1021.9hPa NE 8.5mph /  13.7km/h 12.1mph /  19.5km/h 88% 0in /  0.0mm
15:55 37.9 °F /  3.3 °C 35.6 °F /  2.0 °C 30.2in /  1021.9hPa NE 7.4mph /  11.9km/h 12.1mph /  19.5km/h 88% 0in /  0.0mm
16:00 37.9 °F /  3.3 °C 35.6 °F /  2.0 °C 30.2in /  1021.9hPa NE 11.4mph /  18.3km/h 12.8mph /  20.6km/h 88% 0in /  0.0mm
16:06 37.9 °F /  3.3 °C 35.6 °F /  2.0 °C 30.2in /  1021.9hPa ENE 10.3mph /  16.6km/h 12.8mph /  20.6km/h 88% 0in /  0.0mm
16:08 37.9 °F /  3.3 °C 35.6 °F /  2.0 °C 30.2in /  1021.9hPa ENE 9.2mph /  14.8km/h 12.8mph /  20.6km/h 88% 0in /  0.0mm
16:13 37.9 °F /  3.3 °C 35.6 °F /  2.0 °C 30.2in /  1021.9hPa ENE 8.7mph /  14.0km/h 10.7mph /  17.2km/h 88% 0in /  0.0mm
16:18 37.8 °F /  3.2 °C 35.6 °F /  2.0 °C 30.2in /  1021.9hPa NE 14.5mph /  23.3km/h 15.2mph /  24.5km/h 88% 0in /  0.0mm
16:24 37.8 °F /  3.2 °C 35.6 °F /  2.0 °C 30.2in /  1021.9hPa NE 10.7mph /  17.2km/h 15.2mph /  24.5km/h 88% 0in /  0.0mm
16:27 37.9 °F /  3.3 °C 35.6 °F /  2.0 °C 30.2in /  1021.9hPa NE 10.3mph /  16.6km/h 14.5mph /  23.3km/h 88% 0in /  0.0mm
16:32 37.9 °F /  3.3 °C 35.6 °F /  2.0 °C 30.2in /  1021.9hPa NNE 10.5mph /  16.9km/h 14.5mph /  23.3km/h 88% 0in /  0.0mm
16:37 37.9 °F /  3.3 °C 35.6 °F /  2.0 °C 30.2in /  1021.9hPa NNE 10.3mph /  16.6km/h 17.7mph /  28.5km/h 87% 0in /  0.0mm
16:42 37.9 °F /  3.3 °C 35.6 °F /  2.0 °C 30.2in /  1021.9hPa NE 6mph /  9.7km/h 17.7mph /  28.5km/h 87% 0in /  0.0mm
16:46 37.9 °F /  3.3 °C 35.6 °F /  2.0 °C 30.2in /  1021.9hPa ENE 12.5mph /  20.1km/h 15.9mph /  25.6km/h 88% 0in /  0.0mm
16:51 37.8 °F /  3.2 °C 35.6 °F /  2.0 °C 30.2in /  1021.9hPa NE 8.1mph /  13.0km/h 15.7mph /  25.3km/h 88% 0in /  0.0mm
16:56 37.8 °F /  3.2 °C 35.6 °F /  2.0 °C 30.2in /  1021.9hPa NE 8.5mph /  13.7km/h 17mph /  27.4km/h 87% 0in /  0.0mm
17:01 37.8 °F /  3.2 °C 35.6 °F /  2.0 °C 30.2in /  1021.9hPa NE 7.2mph /  11.6km/h 17mph /  27.4km/h 87% 0in /  0.0mm
17:05 37.6 °F /  3.1 °C 33.8 °F /  1.0 °C 30.2in /  1021.9hPa ENE 7.6mph /  12.2km/h 13.2mph /  21.2km/h 87% 0in /  0.0mm
17:11 37.6 °F /  3.1 °C 33.8 °F /  1.0 °C 30.2in /  1021.9hPa NE 12.5mph /  20.1km/h 17.7mph /  28.5km/h 87% 0in /  0.0mm
17:14 37.6 °F /  3.1 °C 33.8 °F /  1.0 °C 30.2in /  1021.9hPa NE 10.3mph /  16.6km/h 17.7mph /  28.5km/h 87% 0in /  0.0mm
17:19 37.6 °F /  3.1 °C 33.8 °F /  1.0 °C 30.2in /  1021.9hPa NE 12.8mph /  20.6km/h 17.7mph /  28.5km/h 87% 0in /  0.0mm
17:24 37.6 °F /  3.1 °C 33.8 °F /  1.0 °C 30.2in /  1021.9hPa NE 10.5mph /  16.9km/h 16.1mph /  25.9km/h 87% 0in /  0.0mm
17:25 37.6 °F /  3.1 °C 33.8 °F /  1.0 °C 30.2in /  1021.9hPa ENE 10.7mph /  17.2km/h 16.1mph /  25.9km/h 87% 0in /  0.0mm
17:30 37.6 °F /  3.1 °C 33.8 °F /  1.0 °C 30.2in /  1021.9hPa ENE 10.7mph /  17.2km/h 16.3mph /  26.2km/h 87% 0in /  0.0mm
17:35 37.6 °F /  3.1 °C 33.8 °F /  1.0 °C 30.2in /  1021.9hPa NE 10.3mph /  16.6km/h 17.7mph /  28.5km/h 86% 0in /  0.0mm
17:41 37.8 °F /  3.2 °C 33.8 °F /  1.0 °C 30.2in /  1021.9hPa ENE 10.3mph /  16.6km/h 17.7mph /  28.5km/h 86% 0in /  0.0mm
17:46 37.6 °F /  3.1 °C 33.8 °F /  1.0 °C 30.2in /  1021.9hPa ENE 10.3mph /  16.6km/h 17.7mph /  28.5km/h 86% 0in /  0.0mm
17:51 37.6 °F /  3.1 °C 33.8 °F /  1.0 °C 30.2in /  1021.9hPa NNE 11.4mph /  18.3km/h 16.6mph /  26.7km/h 86% 0in /  0.0mm
17:56 37.6 °F /  3.1 °C 33.8 °F /  1.0 °C 30.2in /  1021.9hPa NE 12.3mph /  19.8km/h 18.8mph /  30.2km/h 85% 0in /  0.0mm
18:01 37.6 °F /  3.1 °C 33.8 °F /  1.0 °C 30.2in /  1021.9hPa NE 10.7mph /  17.2km/h 18.8mph /  30.2km/h 85% 0in /  0.0mm
18:06 37.4 °F /  3.0 °C 33.8 °F /  1.0 °C 30.2in /  1021.9hPa NE 10.5mph /  16.9km/h 17.7mph /  28.5km/h 85% 0in /  0.0mm
18:11 37.4 °F /  3.0 °C 33.8 °F /  1.0 °C 30.2in /  1021.9hPa NE 8.7mph /  14.0km/h 17.7mph /  28.5km/h 85% 0in /  0.0mm
18:16 37.4 °F /  3.0 °C 33.8 °F /  1.0 °C 30.2in /  1021.9hPa ENE 14.8mph /  23.8km/h 17mph /  27.4km/h 85% 0in /  0.0mm
18:21 37.2 °F /  2.9 °C 33.8 °F /  1.0 °C 30.2in /  1021.9hPa NE 12.3mph /  19.8km/h 17mph /  27.4km/h 85% 0in /  0.0mm
18:25 37 °F /  2.8 °C 33.8 °F /  1.0 °C 30.2in /  1021.9hPa NE 12.5mph /  20.1km/h 16.8mph /  27.0km/h 85% 0in /  0.0mm
18:30 37 °F /  2.8 °C 33.8 °F /  1.0 °C 30.2in /  1021.9hPa ENE 15.2mph /  24.5km/h 21.5mph /  34.6km/h 85% 0in /  0.0mm
18:35 36.9 °F /  2.7 °C 33.8 °F /  1.0 °C 30.2in /  1021.9hPa NNE 10.1mph /  16.3km/h 21.5mph /  34.6km/h 84% 0in /  0.0mm
18:40 36.9 °F /  2.7 °C 33.8 °F /  1.0 °C 30.2in /  1021.9hPa ENE 13.2mph /  21.2km/h 17.4mph /  28.0km/h 84% 0in /  0.0mm
18:45 36.7 °F /  2.6 °C 33.8 °F /  1.0 °C 30.2in /  1021.9hPa ENE 10.7mph /  17.2km/h 17.7mph /  28.5km/h 84% 0in /  0.0mm
18:49 36.7 °F /  2.6 °C 33.8 °F /  1.0 °C 30.2in /  1021.9hPa ENE 12.1mph /  19.5km/h 17.7mph /  28.5km/h 85% 0in /  0.0mm
18:54 36.7 °F /  2.6 °C 33.8 °F /  1.0 °C 30.2in /  1021.9hPa NE 13.4mph /  21.6km/h 17.2mph /  27.7km/h 84% 0in /  0.0mm
18:59 36.7 °F /  2.6 °C 33.8 °F /  1.0 °C 30.2in /  1021.9hPa NE 14.5mph /  23.3km/h 17.2mph /  27.7km/h 84% 0in /  0.0mm
19:05 36.5 °F /  2.5 °C 33.8 °F /  1.0 °C 30.2in /  1021.9hPa ENE 11mph /  17.7km/h 17.2mph /  27.7km/h 84% 0in /  0.0mm
19:09 36.5 °F /  2.5 °C 33.8 °F /  1.0 °C 30.2in /  1021.9hPa NE 10.1mph /  16.3km/h 17.7mph /  28.5km/h 84% 0in /  0.0mm
19:14 36.5 °F /  2.5 °C 33.8 °F /  1.0 °C 30.2in /  1022.9hPa NE 13.2mph /  21.2km/h 24.4mph /  39.3km/h 84% 0in /  0.0mm
19:19 36.5 °F /  2.5 °C 33.8 °F /  1.0 °C 30.2in /  1022.9hPa ENE 12.3mph /  19.8km/h 24.4mph /  39.3km/h 84% 0in /  0.0mm
19:24 36.3 °F /  2.4 °C 32 °F /  0.0 °C 30.2in /  1022.9hPa NE 9.2mph /  14.8km/h 20.1mph /  32.3km/h 84% 0in /  0.0mm
19:29 36.3 °F /  2.4 °C 32 °F /  0.0 °C 30.2in /  1022.9hPa NE 10.1mph /  16.3km/h 17.4mph /  28.0km/h 84% 0in /  0.0mm
19:34 36.3 °F /  2.4 °C 32 °F /  0.0 °C 30.2in /  1022.9hPa ENE 10.1mph /  16.3km/h 17.7mph /  28.5km/h 84% 0in /  0.0mm
19:39 36.3 °F /  2.4 °C 32 °F /  0.0 °C 30.2in /  1022.9hPa NE 9.4mph /  15.1km/h 19.5mph /  31.4km/h 84% 0in /  0.0mm
19:44 36.3 °F /  2.4 °C 32 °F /  0.0 °C 30.2in /  1022.9hPa ENE 8.1mph /  13.0km/h 19.5mph /  31.4km/h 84% 0in /  0.0mm
19:49 36.1 °F /  2.3 °C 32 °F /  0.0 °C 30.2in /  1022.9hPa ENE 12.8mph /  20.6km/h 16.6mph /  26.7km/h 84% 0in /  0.0mm
19:54 36.1 °F /  2.3 °C 32 °F /  0.0 °C 30.2in /  1022.9hPa ENE 12.3mph /  19.8km/h 17mph /  27.4km/h 83% 0in /  0.0mm
19:57 36.1 °F /  2.3 °C 32 °F /  0.0 °C 30.2in /  1022.9hPa ENE 9.6mph /  15.4km/h 17mph /  27.4km/h 84% 0in /  0.0mm
20:02 36 °F /  2.2 °C 32 °F /  0.0 °C 30.2in /  1022.9hPa ENE 10.1mph /  16.3km/h 14.8mph /  23.8km/h 84% 0in /  0.0mm
20:07 36 °F /  2.2 °C 32 °F /  0.0 °C 30.2in /  1022.9hPa NE 12.3mph /  19.8km/h 15.7mph /  25.3km/h 84% 0in /  0.0mm
20:12 36 °F /  2.2 °C 32 °F /  0.0 °C 30.2in /  1022.9hPa NE 10.5mph /  16.9km/h 15.9mph /  25.6km/h 84% 0in /  0.0mm
20:17 36 °F /  2.2 °C 32 °F /  0.0 °C 30.2in /  1022.9hPa ENE 7.4mph /  11.9km/h 15.9mph /  25.6km/h 84% 0in /  0.0mm
20:23 35.8 °F /  2.1 °C 32 °F /  0.0 °C 30.2in /  1022.9hPa ENE 10.3mph /  16.6km/h 15.2mph /  24.5km/h 84% 0in /  0.0mm
20:24 35.8 °F /  2.1 °C 32 °F /  0.0 °C 30.2in /  1022.9hPa NE 13.6mph /  21.9km/h 15.4mph /  24.8km/h 84% 0in /  0.0mm
20:29 36 °F /  2.2 °C 32 °F /  0.0 °C 30.2in /  1021.9hPa NE 12.5mph /  20.1km/h 19.7mph /  31.7km/h 84% 0in /  0.0mm
20:35 36 °F /  2.2 °C 32 °F /  0.0 °C 30.2in /  1021.9hPa NE 10.1mph /  16.3km/h 19.7mph /  31.7km/h 84% 0in /  0.0mm
20:40 36 °F /  2.2 °C 32 °F /  0.0 °C 30.2in /  1021.9hPa ENE 12.8mph /  20.6km/h 16.1mph /  25.9km/h 84% 0in /  0.0mm
20:41 36 °F /  2.2 °C 32 °F /  0.0 °C 30.2in /  1022.9hPa NE 11mph /  17.7km/h 16.1mph /  25.9km/h 84% 0in /  0.0mm
20:46 35.8 °F /  2.1 °C 32 °F /  0.0 °C 30.2in /  1022.9hPa NE 15.4mph /  24.8km/h 16.1mph /  25.9km/h 84% 0in /  0.0mm
20:51 35.8 °F /  2.1 °C 32 °F /  0.0 °C 30.2in /  1022.9hPa NE 10.5mph /  16.9km/h 15.4mph /  24.8km/h 84% 0in /  0.0mm
20:56 35.8 °F /  2.1 °C 32 °F /  0.0 °C 30.2in /  1022.9hPa East 13.2mph /  21.2km/h 16.6mph /  26.7km/h 84% 0in /  0.0mm
21:01 35.8 °F /  2.1 °C 32 °F /  0.0 °C 30.2in /  1022.9hPa NNE 10.5mph /  16.9km/h 16.6mph /  26.7km/h 85% 0in /  0.0mm
21:04 35.8 °F /  2.1 °C 32 °F /  0.0 °C 30.2in /  1022.9hPa ENE 7.8mph /  12.6km/h 16.6mph /  26.7km/h 85% 0in /  0.0mm
21:09 35.8 °F /  2.1 °C 32 °F /  0.0 °C 30.2in /  1022.9hPa NE 12.1mph /  19.5km/h 17mph /  27.4km/h 85% 0in /  0.0mm
21:14 35.8 °F /  2.1 °C 32 °F /  0.0 °C 30.2in /  1022.9hPa ENE 10.5mph /  16.9km/h 17mph /  27.4km/h 84% 0in /  0.0mm
21:19 35.8 °F /  2.1 °C 32 °F /  0.0 °C 30.2in /  1022.9hPa NE 10.5mph /  16.9km/h 16.3mph /  26.2km/h 84% 0in /  0.0mm
21:24 35.8 °F /  2.1 °C 32 °F /  0.0 °C 30.2in /  1022.9hPa ENE 10.5mph /  16.9km/h 16.3mph /  26.2km/h 85% 0in /  0.0mm
21:29 35.8 °F /  2.1 °C 32 °F /  0.0 °C 30.2in /  1023.9hPa ENE 9.6mph /  15.4km/h 13.2mph /  21.2km/h 85% 0in /  0.0mm
21:35 35.8 °F /  2.1 °C 32 °F /  0.0 °C 30.2in /  1023.9hPa ENE 10.7mph /  17.2km/h 15.4mph /  24.8km/h 85% 0in /  0.0mm
21:40 35.8 °F /  2.1 °C 32 °F /  0.0 °C 30.2in /  1023.9hPa ENE 10.7mph /  17.2km/h 15.4mph /  24.8km/h 85% 0in /  0.0mm
21:45 35.8 °F /  2.1 °C 32 °F /  0.0 °C 30.2in /  1022.9hPa NE 9.8mph /  15.8km/h 17mph /  27.4km/h 85% 0in /  0.0mm
21:52 35.6 °F /  2.0 °C 32 °F /  0.0 °C 30.2in /  1022.9hPa ENE 11.4mph /  18.3km/h 16.8mph /  27.0km/h 85% 0in /  0.0mm
21:58 35.6 °F /  2.0 °C 32 °F /  0.0 °C 30.2in /  1022.9hPa NE 10.5mph /  16.9km/h 20.8mph /  33.5km/h 86% 0in /  0.0mm
22:03 35.6 °F /  2.0 °C 32 °F /  0.0 °C 30.2in /  1022.9hPa NE 12.5mph /  20.1km/h 20.8mph /  33.5km/h 86% 0in /  0.0mm
22:08 35.6 °F /  2.0 °C 32 °F /  0.0 °C 30.2in /  1022.9hPa NE 9.8mph /  15.8km/h 13.6mph /  21.9km/h 86% 0in /  0.0mm
22:13 35.6 °F /  2.0 °C 32 °F /  0.0 °C 30.2in /  1022.9hPa NE 11mph /  17.7km/h 13.2mph /  21.2km/h 86% 0in /  0.0mm
22:16 35.6 °F /  2.0 °C 32 °F /  0.0 °C 30.2in /  1022.9hPa ENE 12.1mph /  19.5km/h 13.2mph /  21.2km/h 86% 0in /  0.0mm
22:21 35.6 °F /  2.0 °C 33.8 °F /  1.0 °C 30.2in /  1022.9hPa ENE 13mph /  20.9km/h 13.2mph /  21.2km/h 87% 0in /  0.0mm
22:26 35.6 °F /  2.0 °C 33.8 °F /  1.0 °C 30.2in /  1022.9hPa NE 13.2mph /  21.2km/h 14.8mph /  23.8km/h 87% 0in /  0.0mm
22:30 35.6 °F /  2.0 °C 33.8 °F /  1.0 °C 30.2in /  1022.9hPa NE 13mph /  20.9km/h 17.7mph /  28.5km/h 87% 0in /  0.0mm
22:35 35.8 °F /  2.1 °C 33.8 °F /  1.0 °C 30.2in /  1022.9hPa ENE 9.6mph /  15.4km/h 17.7mph /  28.5km/h 87% 0in /  0.0mm
22:40 35.8 °F /  2.1 °C 33.8 °F /  1.0 °C 30.2in /  1022.9hPa NE 8.1mph /  13.0km/h 15.2mph /  24.5km/h 87% 0in /  0.0mm
22:50 35.8 °F /  2.1 °C 33.8 °F /  1.0 °C 30.2in /  1022.9hPa NE 10.7mph /  17.2km/h 14.5mph /  23.3km/h 87% 0in /  0.0mm
22:55 35.8 °F /  2.1 °C 33.8 °F /  1.0 °C 30.2in /  1022.9hPa ENE 9.6mph /  15.4km/h 14.5mph /  23.3km/h 88% 0in /  0.0mm
23:01 35.8 °F /  2.1 °C 33.8 °F /  1.0 °C 30.2in /  1022.9hPa NE 10.1mph /  16.3km/h 14.5mph /  23.3km/h 88% 0in /  0.0mm
23:06 35.8 °F /  2.1 °C 33.8 °F /  1.0 °C 30.2in /  1022.9hPa NE 10.3mph /  16.6km/h 14.5mph /  23.3km/h 88% 0in /  0.0mm
23:11 35.8 °F /  2.1 °C 33.8 °F /  1.0 °C 30.2in /  1022.9hPa NE 11.2mph /  18.0km/h 14.8mph /  23.8km/h 88% 0in /  0.0mm
23:16 35.8 °F /  2.1 °C 33.8 °F /  1.0 °C 30.2in /  1022.9hPa ENE 8.7mph /  14.0km/h 14.8mph /  23.8km/h 88% 0in /  0.0mm
23:20 36 °F /  2.2 °C 33.8 °F /  1.0 °C 30.2in /  1022.9hPa NE 8.7mph /  14.0km/h 19.5mph /  31.4km/h 88% 0in /  0.0mm
23:25 36 °F /  2.2 °C 33.8 °F /  1.0 °C 30.2in /  1022.9hPa NE 8.5mph /  13.7km/h 19.5mph /  31.4km/h 88% 0in /  0.0mm
23:31 36 °F /  2.2 °C 33.8 °F /  1.0 °C 30.2in /  1022.9hPa NE 8.5mph /  13.7km/h 19.5mph /  31.4km/h 88% 0in /  0.0mm
23:36 36 °F /  2.2 °C 33.8 °F /  1.0 °C 30.2in /  1022.9hPa NE 8.5mph /  13.7km/h 19.5mph /  31.4km/h 88% 0in /  0.0mm
23:38 36 °F /  2.2 °C 33.8 °F /  1.0 °C 30.2in /  1022.9hPa NE 8.5mph /  13.7km/h 19.5mph /  31.4km/h 88% 0in /  0.0mm
23:43 36 °F /  2.2 °C 33.8 °F /  1.0 °C 30.2in /  1022.9hPa NE 8.5mph /  13.7km/h 19.5mph /  31.4km/h 88% 0in /  0.0mm
23:48 36 °F /  2.2 °C 33.8 °F /  1.0 °C 30.2in /  1022.9hPa NE 8.5mph /  13.7km/h 19.5mph /  31.4km/h 88% 0in /  0.0mm
23:53 36 °F /  2.2 °C 33.8 °F /  1.0 °C 30.2in /  1022.9hPa NE 8.5mph /  13.7km/h 19.5mph /  31.4km/h 88% 0in /  0.0mm
23:58 36 °F /  2.2 °C 33.8 °F /  1.0 °C 30.2in /  1022.9hPa NE 8.5mph /  13.7km/h 19.5mph /  31.4km/h 88% 0in /  0.0mm
Données Historique de Météo Turbie

Mise a jour : 22/05/2018 19:52:12
Généré par Cumulus 1.9.4 (1099)